CheckWX is a tool to help pilots better visualize weather data.  It is not intended as a substitute for an official pre-flight weather briefing.

19:06:21 UTC

PAMY METAR
Mekoryuk Airport
Mekoryuk, Alaska, USA
Current

1 hour ago

PAMY 191756Z AUTO 28014KT 1/2SM -RA FG OVC002 07/07 A3008 RMK AO2 SLP190 P0000 60000 T00670067 10078 20067 51012
Observed
Jun-19 @ 17:56 UTC
Wind
  • 280° at 14 KTS
Visibility
1/2 SM
Flight Rules
LIFR
Conditions
Light Rain, Fog
Cloud Levels
  • Overcast at 200' AGL
Temperature
C / 45°F
Dewpoint
C / 45°F
Humidity
100%
Altimeter
30.08" Hg
Pressure
1018.62 hPa
Current Rain
0.01"
Previous

2 hours ago

PAMY 191656Z AUTO 28012KT 1/2SM -RA FG OVC002 07/07 A3008 RMK AO2 SLP187 P0000 T00670067
Observed
Jun-19 @ 16:56 UTC
Wind
  • 280° at 12 KTS
Visibility
1/2 SM
Flight Rules
LIFR
Conditions
Light Rain, Fog
Cloud Levels
  • Overcast at 200' AGL
Temperature
C / 45°F
Dewpoint
C / 45°F
Humidity
100%
Altimeter
30.08" Hg
Pressure
1018.62 hPa
Current Rain
0.01"
Previous

3 hours ago

PAMY 191635Z AUTO 28012KT 1/2SM -RA FG OVC002 07/07 A3008 RMK AO2 P0000
Observed
Jun-19 @ 16:35 UTC
Wind
  • 280° at 12 KTS
Visibility
1/2 SM
Flight Rules
LIFR
Conditions
Light Rain, Fog
Cloud Levels
  • Overcast at 200' AGL
Temperature
C / 45°F
Dewpoint
C / 45°F
Humidity
100%
Altimeter
30.08" Hg
Pressure
1018.62 hPa
Current Rain
0.01"